sensor_id;sensor_type;location;lat;lon;timestamp;pressure;altitude;pressure_sealevel;temperature;humidity
27358;BME280;14831;50.474;7.616;2023-11-21T00:00:51;97270;;;7.2;100.0
27358;BME280;14831;50.474;7.616;2023-11-21T00:05:51;97270;;;7.1;100.0
27358;BME280;14831;50.474;7.616;2023-11-21T00:10:52;97270;;;7.1;100.0
27358;BME280;14831;50.474;7.616;2023-11-21T00:15:52;97270;;;7.1;100.0
27358;BME280;14831;50.474;7.616;2023-11-21T00:20:51;97280;;;7.1;100.0
27358;BME280;14831;50.474;7.616;2023-11-21T00:25:52;97280;;;7.1;100.0
27358;BME280;14831;50.474;7.616;2023-11-21T00:30:52;97270;;;7.1;100.0
27358;BME280;14831;50.474;7.616;2023-11-21T00:35:52;97280;;;7.1;100.0
27358;BME280;14831;50.474;7.616;2023-11-21T00:40:51;97280;;;7.1;100.0
27358;BME280;14831;50.474;7.616;2023-11-21T00:45:51;97290;;;7.1;100.0
27358;BME280;14831;50.474;7.616;2023-11-21T00:50:52;97300;;;7.1;100.0
27358;BME280;14831;50.474;7.616;2023-11-21T00:55:52;97300;;;7.0;100.0
27358;BME280;14831;50.474;7.616;2023-11-21T01:00:51;97310;;;7.0;100.0
27358;BME280;14831;50.474;7.616;2023-11-21T01:05:52;97300;;;7.1;100.0
27358;BME280;14831;50.474;7.616;2023-11-21T01:10:52;97310;;;7.0;100.0
27358;BME280;14831;50.474;7.616;2023-11-21T01:15:51;97320;;;7.1;100.0
27358;BME280;14831;50.474;7.616;2023-11-21T01:20:52;97330;;;7.0;100.0
27358;BME280;14831;50.474;7.616;2023-11-21T01:25:51;97330;;;7.0;100.0
27358;BME280;14831;50.474;7.616;2023-11-21T01:30:52;97330;;;7.0;100.0
27358;BME280;14831;50.474;7.616;2023-11-21T01:35:51;97330;;;7.0;100.0
27358;BME280;14831;50.474;7.616;2023-11-21T01:40:52;97340;;;7.1;100.0
27358;BME280;14831;50.474;7.616;2023-11-21T01:45:52;97350;;;7.1;100.0
27358;BME280;14831;50.474;7.616;2023-11-21T01:50:51;97350;;;7.0;100.0
27358;BME280;14831;50.474;7.616;2023-11-21T01:55:52;97360;;;7.0;100.0
27358;BME280;14831;50.474;7.616;2023-11-21T02:00:52;97350;;;6.9;100.0
27358;BME280;14831;50.474;7.616;2023-11-21T02:05:51;97350;;;6.8;100.0
27358;BME280;14831;50.474;7.616;2023-11-21T02:10:51;97360;;;6.7;100.0
27358;BME280;14831;50.474;7.616;2023-11-21T02:15:51;97350;;;6.6;100.0
27358;BME280;14831;50.474;7.616;2023-11-21T02:20:52;97370;;;6.6;100.0
27358;BME280;14831;50.474;7.616;2023-11-21T02:25:51;97370;;;6.6;100.0
27358;BME280;14831;50.474;7.616;2023-11-21T02:30:52;97380;;;6.5;100.0
27358;BME280;14831;50.474;7.616;2023-11-21T02:35:51;97380;;;6.5;100.0
27358;BME280;14831;50.474;7.616;2023-11-21T02:40:52;97380;;;6.5;100.0
27358;BME280;14831;50.474;7.616;2023-11-21T02:45:51;97380;;;6.5;100.0
27358;BME280;14831;50.474;7.616;2023-11-21T02:50:52;97380;;;6.4;100.0
27358;BME280;14831;50.474;7.616;2023-11-21T02:55:52;97380;;;6.2;100.0
27358;BME280;14831;50.474;7.616;2023-11-21T03:00:52;97390;;;6.2;100.0
27358;BME280;14831;50.474;7.616;2023-11-21T03:05:52;97390;;;6.2;100.0
27358;BME280;14831;50.474;7.616;2023-11-21T03:10:52;97390;;;6.2;100.0
27358;BME280;14831;50.474;7.616;2023-11-21T03:15:52;97390;;;6.1;100.0
27358;BME280;14831;50.474;7.616;2023-11-21T03:20:52;97400;;;6.1;100.0
27358;BME280;14831;50.474;7.616;2023-11-21T03:25:51;97410;;;6.1;100.0
27358;BME280;14831;50.474;7.616;2023-11-21T03:30:52;97410;;;6.1;100.0
27358;BME280;14831;50.474;7.616;2023-11-21T03:35:52;97410;;;6.1;100.0
27358;BME280;14831;50.474;7.616;2023-11-21T03:40:51;97430;;;6.1;100.0
27358;BME280;14831;50.474;7.616;2023-11-21T03:45:51;97420;;;6.1;100.0
27358;BME280;14831;50.474;7.616;2023-11-21T03:50:51;97430;;;6.1;100.0
27358;BME280;14831;50.474;7.616;2023-11-21T03:55:52;97440;;;6.1;100.0
27358;BME280;14831;50.474;7.616;2023-11-21T04:00:52;97450;;;6.1;100.0
27358;BME280;14831;50.474;7.616;2023-11-21T04:05:51;97450;;;6.2;100.0
27358;BME280;14831;50.474;7.616;2023-11-21T04:10:52;97460;;;6.2;100.0
27358;BME280;14831;50.474;7.616;2023-11-21T04:15:51;97460;;;6.2;100.0
27358;BME280;14831;50.474;7.616;2023-11-21T04:20:52;97460;;;6.2;100.0
27358;BME280;14831;50.474;7.616;2023-11-21T04:25:51;97460;;;6.2;100.0
27358;BME280;14831;50.474;7.616;2023-11-21T04:30:52;97470;;;6.2;100.0
27358;BME280;14831;50.474;7.616;2023-11-21T04:35:52;97470;;;6.2;100.0
27358;BME280;14831;50.474;7.616;2023-11-21T04:40:51;97490;;;6.2;100.0
27358;BME280;14831;50.474;7.616;2023-11-21T04:45:52;97500;;;6.3;100.0
27358;BME280;14831;50.474;7.616;2023-11-21T04:50:51;97510;;;6.3;100.0
27358;BME280;14831;50.474;7.616;2023-11-21T04:55:51;97500;;;6.4;100.0
27358;BME280;14831;50.474;7.616;2023-11-21T05:00:51;97520;;;6.4;100.0
27358;BME280;14831;50.474;7.616;2023-11-21T05:05:52;97520;;;6.4;100.0
27358;BME280;14831;50.474;7.616;2023-11-21T05:10:51;97520;;;6.4;100.0
27358;BME280;14831;50.474;7.616;2023-11-21T05:15:51;97520;;;6.4;100.0
27358;BME280;14831;50.474;7.616;2023-11-21T05:20:52;97520;;;6.4;100.0
27358;BME280;14831;50.474;7.616;2023-11-21T05:25:51;97520;;;6.4;100.0
27358;BME280;14831;50.474;7.616;2023-11-21T05:30:51;97540;;;6.4;100.0
27358;BME280;14831;50.474;7.616;2023-11-21T05:35:51;97540;;;6.4;100.0
27358;BME280;14831;50.474;7.616;2023-11-21T05:40:51;97540;;;6.4;100.0
27358;BME280;14831;50.474;7.616;2023-11-21T05:45:52;97540;;;6.4;100.0
27358;BME280;14831;50.474;7.616;2023-11-21T05:50:52;97540;;;6.4;100.0
27358;BME280;14831;50.474;7.616;2023-11-21T05:55:51;97540;;;6.4;100.0
27358;BME280;14831;50.474;7.616;2023-11-21T06:00:52;97550;;;6.4;100.0
27358;BME280;14831;50.474;7.616;2023-11-21T06:05:51;97560;;;6.5;100.0
27358;BME280;14831;50.474;7.616;2023-11-21T06:10:52;97560;;;6.5;100.0
27358;BME280;14831;50.474;7.616;2023-11-21T06:15:51;97570;;;6.5;100.0
27358;BME280;14831;50.474;7.616;2023-11-21T06:20:52;97570;;;6.6;100.0
27358;BME280;14831;50.474;7.616;2023-11-21T06:25:51;97590;;;6.5;100.0
27358;BME280;14831;50.474;7.616;2023-11-21T06:30:52;97600;;;6.5;100.0
27358;BME280;14831;50.474;7.616;2023-11-21T06:35:52;97600;;;6.6;100.0
27358;BME280;14831;50.474;7.616;2023-11-21T06:40:52;97610;;;6.6;100.0
27358;BME280;14831;50.474;7.616;2023-11-21T06:45:51;97620;;;6.6;100.0
27358;BME280;14831;50.474;7.616;2023-11-21T06:50:51;97620;;;6.6;100.0
27358;BME280;14831;50.474;7.616;2023-11-21T06:55:52;97630;;;6.6;100.0
27358;BME280;14831;50.474;7.616;2023-11-21T07:00:52;97640;;;6.6;100.0
27358;BME280;14831;50.474;7.616;2023-11-21T07:05:52;97630;;;6.6;100.0
27358;BME280;14831;50.474;7.616;2023-11-21T07:10:51;97650;;;6.6;100.0
27358;BME280;14831;50.474;7.616;2023-11-21T07:15:51;97650;;;6.6;100.0
27358;BME280;14831;50.474;7.616;2023-11-21T07:20:51;97670;;;6.6;100.0
27358;BME280;14831;50.474;7.616;2023-11-21T07:25:51;97670;;;6.6;100.0
27358;BME280;14831;50.474;7.616;2023-11-21T07:30:51;97690;;;6.6;100.0
27358;BME280;14831;50.474;7.616;2023-11-21T07:35:52;97700;;;6.6;100.0
27358;BME280;14831;50.474;7.616;2023-11-21T07:40:52;97700;;;6.6;100.0
27358;BME280;14831;50.474;7.616;2023-11-21T07:45:51;97710;;;6.6;100.0
27358;BME280;14831;50.474;7.616;2023-11-21T07:50:52;97710;;;6.6;100.0
27358;BME280;14831;50.474;7.616;2023-11-21T07:55:51;97740;;;6.6;100.0
27358;BME280;14831;50.474;7.616;2023-11-21T08:00:52;97730;;;6.6;100.0
27358;BME280;14831;50.474;7.616;2023-11-21T08:05:51;97740;;;6.6;100.0
27358;BME280;14831;50.474;7.616;2023-11-21T08:10:52;97750;;;6.6;100.0
27358;BME280;14831;50.474;7.616;2023-11-21T08:15:53;97750;;;6.6;100.0
27358;BME280;14831;50.474;7.616;2023-11-21T08:20:52;97760;;;6.7;100.0
27358;BME280;14831;50.474;7.616;2023-11-21T08:25:52;97760;;;6.7;100.0
27358;BME280;14831;50.474;7.616;2023-11-21T08:30:52;97760;;;6.9;100.0
27358;BME280;14831;50.474;7.616;2023-11-21T08:35:51;97770;;;6.8;100.0
27358;BME280;14831;50.474;7.616;2023-11-21T08:40:51;97770;;;6.8;100.0
27358;BME280;14831;50.474;7.616;2023-11-21T08:45:51;97770;;;6.9;100.0
27358;BME280;14831;50.474;7.616;2023-11-21T08:50:51;97770;;;6.9;100.0
27358;BME280;14831;50.474;7.616;2023-11-21T08:55:51;97770;;;7.1;100.0
27358;BME280;14831;50.474;7.616;2023-11-21T09:00:52;97780;;;7.1;100.0
27358;BME280;14831;50.474;7.616;2023-11-21T09:05:51;97770;;;7.1;100.0
27358;BME280;14831;50.474;7.616;2023-11-21T09:10:52;97790;;;7.2;100.0
27358;BME280;14831;50.474;7.616;2023-11-21T09:15:52;97790;;;7.2;100.0
27358;BME280;14831;50.474;7.616;2023-11-21T09:20:51;97810;;;7.6;100.0
27358;BME280;14831;50.474;7.616;2023-11-21T09:25:52;97800;;;7.4;100.0
27358;BME280;14831;50.474;7.616;2023-11-21T09:30:52;97810;;;7.4;100.0
27358;BME280;14831;50.474;7.616;2023-11-21T09:35:51;97820;;;7.7;100.0
27358;BME280;14831;50.474;7.616;2023-11-21T09:40:51;97820;;;7.6;100.0
27358;BME280;14831;50.474;7.616;2023-11-21T09:45:53;97830;;;7.6;100.0
27358;BME280;14831;50.474;7.616;2023-11-21T09:50:51;97850;;;7.4;100.0
27358;BME280;14831;50.474;7.616;2023-11-21T09:55:52;97840;;;7.6;99.9
27358;BME280;14831;50.474;7.616;2023-11-21T10:00:52;97860;;;7.7;99.0
27358;BME280;14831;50.474;7.616;2023-11-21T10:05:51;97850;;;7.7;98.8
27358;BME280;14831;50.474;7.616;2023-11-21T10:10:52;97860;;;7.7;98.3
27358;BME280;14831;50.474;7.616;2023-11-21T10:15:52;97860;;;7.8;98.0
27358;BME280;14831;50.474;7.616;2023-11-21T10:20:51;97860;;;7.7;98.0
27358;BME280;14831;50.474;7.616;2023-11-21T10:25:52;97870;;;7.6;98.1
27358;BME280;14831;50.474;7.616;2023-11-21T10:30:51;97870;;;7.7;98.3
27358;BME280;14831;50.474;7.616;2023-11-21T10:35:51;97870;;;7.6;97.3
27358;BME280;14831;50.474;7.616;2023-11-21T10:40:52;97880;;;7.7;97.3
27358;BME280;14831;50.474;7.616;2023-11-21T10:45:51;97880;;;7.9;97.4
27358;BME280;14831;50.474;7.616;2023-11-21T10:50:51;97880;;;7.9;97.2
27358;BME280;14831;50.474;7.616;2023-11-21T10:55:56;97880;;;7.9;96.6
27358;BME280;14831;50.474;7.616;2023-11-21T11:00:52;97870;;;7.9;96.2
27358;BME280;14831;50.474;7.616;2023-11-21T11:05:52;97880;;;7.9;96.4
27358;BME280;14831;50.474;7.616;2023-11-21T11:10:52;97880;;;7.9;95.8
27358;BME280;14831;50.474;7.616;2023-11-21T11:15:52;97880;;;8.0;95.9
27358;BME280;14831;50.474;7.616;2023-11-21T11:20:52;97880;;;7.9;94.9
27358;BME280;14831;50.474;7.616;2023-11-21T11:25:54;97870;;;8.0;94.8
27358;BME280;14831;50.474;7.616;2023-11-21T11:30:55;97870;;;7.9;94.2
27358;BME280;14831;50.474;7.616;2023-11-21T11:35:52;97870;;;8.0;94.7
27358;BME280;14831;50.474;7.616;2023-11-21T11:40:52;97880;;;8.0;94.8
27358;BME280;14831;50.474;7.616;2023-11-21T11:45:52;97890;;;8.0;94.7
27358;BME280;14831;50.474;7.616;2023-11-21T11:51:01;97900;;;7.9;94.6
27358;BME280;14831;50.474;7.616;2023-11-21T11:55:57;97900;;;7.9;94.6
27358;BME280;14831;50.474;7.616;2023-11-21T12:00:51;97900;;;7.9;94.2
27358;BME280;14831;50.474;7.616;2023-11-21T12:05:51;97900;;;7.7;94.1
27358;BME280;14831;50.474;7.616;2023-11-21T12:10:52;97900;;;7.8;94.0
27358;BME280;14831;50.474;7.616;2023-11-21T12:15:52;97900;;;7.7;94.7
27358;BME280;14831;50.474;7.616;2023-11-21T12:20:51;97910;;;7.7;95.0
27358;BME280;14831;50.474;7.616;2023-11-21T12:25:52;97910;;;7.8;95.4
27358;BME280;14831;50.474;7.616;2023-11-21T12:30:51;97910;;;7.8;95.7
27358;BME280;14831;50.474;7.616;2023-11-21T12:35:51;97920;;;7.8;95.2
27358;BME280;14831;50.474;7.616;2023-11-21T12:40:51;97910;;;7.9;95.0
27358;BME280;14831;50.474;7.616;2023-11-21T12:45:52;97920;;;7.9;94.8
27358;BME280;14831;50.474;7.616;2023-11-21T12:50:51;97930;;;8.0;94.3
27358;BME280;14831;50.474;7.616;2023-11-21T12:55:52;97930;;;8.1;94.6
27358;BME280;14831;50.474;7.616;2023-11-21T13:00:51;97940;;;8.1;94.2
27358;BME280;14831;50.474;7.616;2023-11-21T13:05:52;97940;;;8.1;93.7
27358;BME280;14831;50.474;7.616;2023-11-21T13:10:52;97950;;;8.3;93.5
27358;BME280;14831;50.474;7.616;2023-11-21T13:15:52;97950;;;8.2;93.6
27358;BME280;14831;50.474;7.616;2023-11-21T13:20:52;97950;;;8.2;93.6
27358;BME280;14831;50.474;7.616;2023-11-21T13:25:52;97950;;;8.1;92.9
27358;BME280;14831;50.474;7.616;2023-11-21T13:30:51;97960;;;8.0;92.5
27358;BME280;14831;50.474;7.616;2023-11-21T13:35:51;97960;;;8.1;92.5
27358;BME280;14831;50.474;7.616;2023-11-21T13:40:52;97960;;;8.1;92.8
27358;BME280;14831;50.474;7.616;2023-11-21T13:45:53;97960;;;8.2;93.3
27358;BME280;14831;50.474;7.616;2023-11-21T13:50:51;97960;;;8.1;93.2
27358;BME280;14831;50.474;7.616;2023-11-21T13:55:52;97970;;;8.2;93.5
27358;BME280;14831;50.474;7.616;2023-11-21T14:00:51;97980;;;8.2;93.1
27358;BME280;14831;50.474;7.616;2023-11-21T14:05:51;97980;;;8.3;93.4
27358;BME280;14831;50.474;7.616;2023-11-21T14:10:52;97980;;;8.2;93.0
27358;BME280;14831;50.474;7.616;2023-11-21T14:15:52;97990;;;8.2;93.2
27358;BME280;14831;50.474;7.616;2023-11-21T14:20:51;97990;;;8.2;93.5
27358;BME280;14831;50.474;7.616;2023-11-21T14:25:51;98000;;;8.1;92.9
27358;BME280;14831;50.474;7.616;2023-11-21T14:30:52;98000;;;8.1;93.2
27358;BME280;14831;50.474;7.616;2023-11-21T14:35:51;98000;;;8.1;92.9
27358;BME280;14831;50.474;7.616;2023-11-21T14:40:51;98010;;;8.1;93.0
27358;BME280;14831;50.474;7.616;2023-11-21T14:45:52;98020;;;8.1;92.9
27358;BME280;14831;50.474;7.616;2023-11-21T14:50:52;98010;;;8.1;93.0
27358;BME280;14831;50.474;7.616;2023-11-21T14:55:52;98020;;;8.1;93.4
27358;BME280;14831;50.474;7.616;2023-11-21T15:00:52;98030;;;8.0;94.0
27358;BME280;14831;50.474;7.616;2023-11-21T15:05:51;98030;;;8.0;94.2
27358;BME280;14831;50.474;7.616;2023-11-21T15:10:51;98040;;;7.9;94.1
27358;BME280;14831;50.474;7.616;2023-11-21T15:15:51;98040;;;7.9;94.2
27358;BME280;14831;50.474;7.616;2023-11-21T15:20:52;98050;;;7.9;94.5
27358;BME280;14831;50.474;7.616;2023-11-21T15:25:51;98060;;;7.9;94.5
27358;BME280;14831;50.474;7.616;2023-11-21T15:30:52;98060;;;7.8;94.9
27358;BME280;14831;50.474;7.616;2023-11-21T15:35:52;98060;;;7.8;95.3
27358;BME280;14831;50.474;7.616;2023-11-21T15:40:52;98060;;;7.7;95.6
27358;BME280;14831;50.474;7.616;2023-11-21T15:45:51;98070;;;7.7;96.1
27358;BME280;14831;50.474;7.616;2023-11-21T15:50:51;98060;;;7.6;96.7
27358;BME280;14831;50.474;7.616;2023-11-21T15:55:52;98070;;;7.6;97.3
27358;BME280;14831;50.474;7.616;2023-11-21T16:00:52;98060;;;7.6;97.6
27358;BME280;14831;50.474;7.616;2023-11-21T16:05:52;98070;;;7.6;98.0
27358;BME280;14831;50.474;7.616;2023-11-21T16:10:51;98080;;;7.6;98.3
27358;BME280;14831;50.474;7.616;2023-11-21T16:15:52;98090;;;7.6;98.5
27358;BME280;14831;50.474;7.616;2023-11-21T16:20:52;98100;;;7.6;98.8
27358;BME280;14831;50.474;7.616;2023-11-21T16:25:51;98110;;;7.6;99.2
27358;BME280;14831;50.474;7.616;2023-11-21T16:30:51;98110;;;7.6;99.3
27358;BME280;14831;50.474;7.616;2023-11-21T16:35:52;98120;;;7.6;99.4
27358;BME280;14831;50.474;7.616;2023-11-21T16:40:52;98120;;;7.6;99.6
27358;BME280;14831;50.474;7.616;2023-11-21T16:45:51;98140;;;7.6;99.8
27358;BME280;14831;50.474;7.616;2023-11-21T16:50:51;98140;;;7.6;99.8
27358;BME280;14831;50.474;7.616;2023-11-21T16:55:51;98140;;;7.6;99.9
27358;BME280;14831;50.474;7.616;2023-11-21T17:00:51;98140;;;7.6;100.0
27358;BME280;14831;50.474;7.616;2023-11-21T17:05:51;98140;;;7.6;100.0
27358;BME280;14831;50.474;7.616;2023-11-21T17:10:51;98150;;;7.6;100.0
27358;BME280;14831;50.474;7.616;2023-11-21T17:15:52;98160;;;7.6;100.0
27358;BME280;14831;50.474;7.616;2023-11-21T17:20:51;98160;;;7.6;100.0
27358;BME280;14831;50.474;7.616;2023-11-21T17:25:51;98160;;;7.6;100.0
27358;BME280;14831;50.474;7.616;2023-11-21T17:30:51;98180;;;7.6;100.0
27358;BME280;14831;50.474;7.616;2023-11-21T17:35:52;98190;;;7.6;100.0
27358;BME280;14831;50.474;7.616;2023-11-21T17:40:52;98200;;;7.6;100.0
27358;BME280;14831;50.474;7.616;2023-11-21T17:45:51;98200;;;7.6;100.0
27358;BME280;14831;50.474;7.616;2023-11-21T17:50:52;98210;;;7.6;100.0
27358;BME280;14831;50.474;7.616;2023-11-21T17:55:52;98220;;;7.6;100.0
27358;BME280;14831;50.474;7.616;2023-11-21T18:00:52;98220;;;7.6;100.0
27358;BME280;14831;50.474;7.616;2023-11-21T18:05:51;98220;;;7.6;100.0
27358;BME280;14831;50.474;7.616;2023-11-21T18:10:51;98230;;;7.6;100.0
27358;BME280;14831;50.474;7.616;2023-11-21T18:15:51;98230;;;7.6;100.0
27358;BME280;14831;50.474;7.616;2023-11-21T18:20:51;98250;;;7.6;100.0
27358;BME280;14831;50.474;7.616;2023-11-21T18:25:51;98260;;;7.5;100.0
27358;BME280;14831;50.474;7.616;2023-11-21T18:30:51;98260;;;7.5;99.9
27358;BME280;14831;50.474;7.616;2023-11-21T18:35:51;98270;;;7.6;100.0
27358;BME280;14831;50.474;7.616;2023-11-21T18:40:51;98280;;;7.6;100.0
27358;BME280;14831;50.474;7.616;2023-11-21T18:45:52;98290;;;7.5;100.0
27358;BME280;14831;50.474;7.616;2023-11-21T18:50:51;98300;;;7.4;100.0
27358;BME280;14831;50.474;7.616;2023-11-21T18:55:51;98300;;;7.4;100.0
27358;BME280;14831;50.474;7.616;2023-11-21T19:00:52;98310;;;7.4;100.0
27358;BME280;14831;50.474;7.616;2023-11-21T19:05:51;98320;;;7.4;100.0
27358;BME280;14831;50.474;7.616;2023-11-21T19:10:51;98330;;;7.3;99.3
27358;BME280;14831;50.474;7.616;2023-11-21T19:15:51;98340;;;7.3;99.3
27358;BME280;14831;50.474;7.616;2023-11-21T19:20:51;98350;;;7.1;98.4
27358;BME280;14831;50.474;7.616;2023-11-21T19:25:51;98360;;;6.8;97.5
27358;BME280;14831;50.474;7.616;2023-11-21T19:30:51;98370;;;6.6;98.0
27358;BME280;14831;50.474;7.616;2023-11-21T19:35:51;98370;;;6.6;98.3
27358;BME280;14831;50.474;7.616;2023-11-21T19:40:51;98390;;;6.5;98.3
27358;BME280;14831;50.474;7.616;2023-11-21T19:45:51;98380;;;6.4;98.3
27358;BME280;14831;50.474;7.616;2023-11-21T19:50:51;98400;;;6.4;98.7
27358;BME280;14831;50.474;7.616;2023-11-21T19:55:52;98400;;;6.2;98.9
27358;BME280;14831;50.474;7.616;2023-11-21T20:00:51;98410;;;6.2;99.1
27358;BME280;14831;50.474;7.616;2023-11-21T20:05:51;98420;;;6.1;99.5
27358;BME280;14831;50.474;7.616;2023-11-21T20:10:51;98430;;;5.7;98.1
27358;BME280;14831;50.474;7.616;2023-11-21T20:15:51;98440;;;5.6;98.0
27358;BME280;14831;50.474;7.616;2023-11-21T20:20:51;98450;;;5.3;97.4
27358;BME280;14831;50.474;7.616;2023-11-21T20:25:51;98450;;;5.1;97.2
27358;BME280;14831;50.474;7.616;2023-11-21T20:30:51;98470;;;5.0;96.1
27358;BME280;14831;50.474;7.616;2023-11-21T20:35:51;98460;;;4.8;95.6
27358;BME280;14831;50.474;7.616;2023-11-21T20:40:51;98470;;;4.7;93.9
27358;BME280;14831;50.474;7.616;2023-11-21T20:45:51;98480;;;4.7;94.7
27358;BME280;14831;50.474;7.616;2023-11-21T20:50:51;98500;;;4.6;94.8
27358;BME280;14831;50.474;7.616;2023-11-21T20:55:51;98500;;;4.5;94.5
27358;BME280;14831;50.474;7.616;2023-11-21T21:00:51;98500;;;4.5;93.7
27358;BME280;14831;50.474;7.616;2023-11-21T21:05:51;98510;;;4.4;93.8
27358;BME280;14831;50.474;7.616;2023-11-21T21:10:51;98520;;;4.4;94.3
27358;BME280;14831;50.474;7.616;2023-11-21T21:15:51;98530;;;4.4;94.3
27358;BME280;14831;50.474;7.616;2023-11-21T21:20:52;98530;;;4.3;94.4
27358;BME280;14831;50.474;7.616;2023-11-21T21:25:52;98540;;;4.4;94.5
27358;BME280;14831;50.474;7.616;2023-11-21T21:30:51;98540;;;4.4;94.1
27358;BME280;14831;50.474;7.616;2023-11-21T21:35:51;98540;;;4.4;93.7
27358;BME280;14831;50.474;7.616;2023-11-21T21:40:51;98550;;;4.4;94.0
27358;BME280;14831;50.474;7.616;2023-11-21T21:45:51;98560;;;4.4;94.0
27358;BME280;14831;50.474;7.616;2023-11-21T21:50:51;98570;;;4.4;94.5
27358;BME280;14831;50.474;7.616;2023-11-21T21:55:52;98570;;;4.4;94.5
27358;BME280;14831;50.474;7.616;2023-11-21T22:00:52;98580;;;4.4;93.7
27358;BME280;14831;50.474;7.616;2023-11-21T22:05:52;98580;;;4.4;93.4
27358;BME280;14831;50.474;7.616;2023-11-21T22:10:51;98590;;;4.4;92.1
27358;BME280;14831;50.474;7.616;2023-11-21T22:15:51;98610;;;4.4;92.2
27358;BME280;14831;50.474;7.616;2023-11-21T22:20:51;98610;;;4.4;92.5
27358;BME280;14831;50.474;7.616;2023-11-21T22:25:51;98620;;;4.4;92.2
27358;BME280;14831;50.474;7.616;2023-11-21T22:30:51;98620;;;4.4;91.9
27358;BME280;14831;50.474;7.616;2023-11-21T22:35:51;98630;;;4.3;91.6
27358;BME280;14831;50.474;7.616;2023-11-21T22:40:51;98640;;;4.3;91.4
27358;BME280;14831;50.474;7.616;2023-11-21T22:45:52;98650;;;4.3;91.4
27358;BME280;14831;50.474;7.616;2023-11-21T22:50:51;98660;;;4.3;91.2
27358;BME280;14831;50.474;7.616;2023-11-21T22:55:52;98680;;;4.2;91.4
27358;BME280;14831;50.474;7.616;2023-11-21T23:00:52;98670;;;4.2;91.2
27358;BME280;14831;50.474;7.616;2023-11-21T23:05:51;98680;;;4.2;91.3
27358;BME280;14831;50.474;7.616;2023-11-21T23:10:51;98680;;;4.1;91.0
27358;BME280;14831;50.474;7.616;2023-11-21T23:15:52;98690;;;4.1;90.8
27358;BME280;14831;50.474;7.616;2023-11-21T23:20:51;98700;;;4.0;90.8
27358;BME280;14831;50.474;7.616;2023-11-21T23:25:51;98700;;;3.9;90.8
27358;BME280;14831;50.474;7.616;2023-11-21T23:30:51;98690;;;3.9;90.4
27358;BME280;14831;50.474;7.616;2023-11-21T23:35:51;98700;;;3.9;90.0
27358;BME280;14831;50.474;7.616;2023-11-21T23:40:51;98690;;;3.7;90.3
27358;BME280;14831;50.474;7.616;2023-11-21T23:45:51;98680;;;3.7;90.1
27358;BME280;14831;50.474;7.616;2023-11-21T23:50:51;98690;;;3.6;90.4
27358;BME280;14831;50.474;7.616;2023-11-21T23:55:51;98680;;;3.6;90.6
